Time;durP1;ratioP1;P1;durP2;ratioP2;P2;SDS_P1;SDS_P2;PMS_P1;PMS_P2;Temp;Humidity;BMP_temperature;BMP_pressure;BME280_temperature;BME280_humidity;BME280_pressure;Samples;Min_cycle;Max_cycle;Signal;HPM_P1;HPM_P2
2024/01/13 00:02:07;;;;;;;8.03;5.80;;;;;;;17.76;48.52;101593.66;4929406;29;20274;-77
2024/01/13 00:04:32;;;;;;;7.90;5.27;;;;;;;17.75;47.70;101594.84;4933243;29;20279;-76
2024/01/13 00:06:58;;;;;;;10.33;5.90;;;;;;;17.79;47.61;101593.81;4949222;28;20558;-77
2024/01/13 00:09:23;;;;;;;8.60;5.50;;;;;;;17.79;47.71;101593.81;4931858;28;20210;-77
2024/01/13 00:11:48;;;;;;;6.27;5.00;;;;;;;17.80;47.39;101584.03;4937332;28;20210;-77
2024/01/13 00:14:14;;;;;;;11.13;6.40;;;;;;;17.76;47.73;101588.75;4933193;29;20562;-77
2024/01/13 00:16:39;;;;;;;5.77;4.40;;;;;;;17.78;47.95;101586.41;4933114;29;20643;-77
2024/01/13 00:19:05;;;;;;;7.07;4.63;;;;;;;17.78;48.32;101591.28;4933955;28;20270;-77
2024/01/13 00:21:30;;;;;;;8.43;5.40;;;;;;;17.76;48.25;101583.06;4941454;28;20213;-77
2024/01/13 00:23:56;;;;;;;8.87;5.67;;;;;;;17.74;48.20;101585.44;4922913;29;20230;-77
2024/01/13 00:26:22;;;;;;;8.37;5.00;;;;;;;17.72;47.95;101582.09;4960440;28;20216;-71
2024/01/13 00:28:47;;;;;;;6.13;4.60;;;;;;;17.77;48.02;101583.91;4919788;29;20219;-73
2024/01/13 00:31:13;;;;;;;8.43;5.40;;;;;;;17.74;48.08;101584.56;4905243;29;20981;-72
2024/01/13 00:33:43;;;;;;;7.53;5.30;;;;;;;17.74;47.86;101587.44;4934261;29;20215;-72
2024/01/13 00:36:09;;;;;;;8.03;5.47;;;;;;;17.76;47.93;101583.06;4954505;28;20492;-71
2024/01/13 00:38:34;;;;;;;8.83;5.50;;;;;;;17.71;48.27;101582.44;4939320;29;20454;-72
2024/01/13 00:41:00;;;;;;;6.87;4.93;;;;;;;17.71;48.43;101583.25;4948871;28;20566;-72
2024/01/13 00:43:25;;;;;;;7.30;4.67;;;;;;;17.70;47.75;101584.44;4930732;29;20207;-72
2024/01/13 00:45:50;;;;;;;7.57;5.00;;;;;;;17.74;48.01;101578.88;4936954;29;21010;-72
2024/01/13 00:48:16;;;;;;;9.53;5.50;;;;;;;17.76;48.21;101583.06;4936745;29;20195;-72
2024/01/13 00:50:41;;;;;;;8.53;5.63;;;;;;;17.71;47.82;101574.69;4932149;29;20266;-72
2024/01/13 00:53:07;;;;;;;7.00;4.80;;;;;;;17.71;48.48;101582.44;4923891;28;20617;-72
2024/01/13 00:55:32;;;;;;;7.40;4.80;;;;;;;17.71;48.03;101571.81;4916327;29;20210;-72
2024/01/13 00:57:57;;;;;;;7.20;4.60;;;;;;;17.76;47.79;101577.34;4935272;28;20671;-72
2024/01/13 01:00:23;;;;;;;8.63;5.30;;;;;;;17.78;47.70;101568.44;4967439;28;20202;-74
2024/01/13 01:02:48;;;;;;;6.97;4.90;;;;;;;17.71;48.62;101566.13;4934958;29;20219;-72
2024/01/13 01:05:14;;;;;;;6.77;5.10;;;;;;;17.72;47.76;101567.81;4946655;28;20277;-72
2024/01/13 01:07:39;;;;;;;8.10;5.27;;;;;;;17.70;48.34;101557.91;4941024;29;20253;-72
2024/01/13 01:10:05;;;;;;;6.30;4.20;;;;;;;17.68;48.08;101565.97;4952730;28;20218;-71
2024/01/13 01:12:31;;;;;;;7.80;5.27;;;;;;;17.74;48.19;101562.56;4952473;28;20253;-72
2024/01/13 01:14:56;;;;;;;8.23;4.90;;;;;;;17.70;48.34;101564.44;4949507;28;20218;-72
2024/01/13 01:17:21;;;;;;;7.43;5.17;;;;;;;17.69;48.16;101559.91;4936488;28;20207;-72
2024/01/13 01:19:47;;;;;;;8.03;5.00;;;;;;;17.67;48.17;101558.59;4951672;28;20210;-72
2024/01/13 01:22:12;;;;;;;7.13;4.50;;;;;;;17.72;48.46;101547.81;4936664;29;20203;-72
2024/01/13 01:24:38;;;;;;;8.00;5.07;;;;;;;17.69;48.95;101550.50;4952466;28;20263;-72
2024/01/13 01:27:03;;;;;;;7.33;5.07;;;;;;;17.72;48.33;101536.41;4910299;29;20215;-72
2024/01/13 01:29:29;;;;;;;7.17;4.80;;;;;;;17.71;48.38;101540.41;4901270;29;20222;-72
2024/01/13 01:31:54;;;;;;;6.80;4.80;;;;;;;17.68;47.94;101541.13;4924850;29;20679;-72
2024/01/13 01:34:20;;;;;;;7.30;4.47;;;;;;;17.70;48.37;101538.75;4918054;29;20214;-72
2024/01/13 01:36:45;;;;;;;7.90;4.90;;;;;;;17.68;47.93;101541.13;4936157;29;20674;-76
2024/01/13 01:39:10;;;;;;;7.07;4.93;;;;;;;17.67;48.65;101528.03;4935415;29;20214;-77
2024/01/13 01:41:36;;;;;;;10.20;4.70;;;;;;;17.66;48.14;101526.31;4936089;29;20234;-77
2024/01/13 01:44:01;;;;;;;6.67;5.20;;;;;;;17.64;48.61;101527.84;4930598;29;20283;-76
2024/01/13 01:46:27;;;;;;;6.00;4.47;;;;;;;17.67;48.24;101525.16;4900608;29;20974;-76
2024/01/13 01:48:55;;;;;;;6.00;4.77;;;;;;;17.64;48.19;101525.84;4900808;29;20211;-75
2024/01/13 01:51:22;;;;;;;9.10;5.40;;;;;;;17.63;48.37;101521.31;4917825;29;20947;-76
2024/01/13 01:53:48;;;;;;;6.67;5.10;;;;;;;17.61;48.34;101526.53;4935526;28;20465;-76
2024/01/13 01:56:15;;;;;;;6.10;4.33;;;;;;;17.63;48.01;101515.63;4922537;29;20459;-76
2024/01/13 01:58:41;;;;;;;8.13;4.87;;;;;;;17.61;48.77;101514.28;4931579;29;20590;-76
2024/01/13 02:01:06;;;;;;;6.47;4.47;;;;;;;17.63;48.65;101521.31;4919312;29;20455;-77
2024/01/13 02:03:33;;;;;;;7.20;4.53;;;;;;;17.71;48.99;101508.19;4920408;29;20234;-78
2024/01/13 02:06:01;;;;;;;7.73;5.00;;;;;;;17.66;48.08;101512.03;4928014;28;20482;-77
2024/01/13 02:08:26;;;;;;;6.23;4.83;;;;;;;17.61;48.40;101503.69;4901598;29;21286;-78
2024/01/13 02:10:52;;;;;;;6.27;4.30;;;;;;;17.62;48.36;101508.25;4901194;29;20463;-77
2024/01/13 02:13:17;;;;;;;6.37;4.43;;;;;;;17.62;48.06;101504.53;4916741;29;20200;-77
2024/01/13 02:15:42;;;;;;;6.07;3.90;;;;;;;17.59;48.56;101502.34;4933686;29;20211;-78
2024/01/13 02:18:08;;;;;;;6.73;4.80;;;;;;;17.60;48.65;101501.19;4916104;29;20212;-77
2024/01/13 02:20:33;;;;;;;6.50;4.93;;;;;;;17.60;48.25;101489.78;4916224;29;20229;-78
2024/01/13 02:22:59;;;;;;;7.30;4.47;;;;;;;17.64;48.16;101487.88;4933578;28;20218;-77
2024/01/13 02:25:24;;;;;;;9.23;5.00;;;;;;;17.63;48.25;101489.91;4911654;29;20211;-77
2024/01/13 02:27:49;;;;;;;7.50;5.30;;;;;;;17.60;48.88;101487.75;4952285;28;20211;-77
2024/01/13 02:30:15;;;;;;;6.33;4.60;;;;;;;17.62;48.45;101481.69;4937603;28;20214;-77
2024/01/13 02:32:40;;;;;;;6.70;4.30;;;;;;;17.61;48.30;101477.97;4938906;28;20213;-77
2024/01/13 02:35:08;;;;;;;6.70;5.17;;;;;;;17.59;48.65;101483.22;4929678;29;20212;-77
2024/01/13 02:37:33;;;;;;;7.70;5.00;;;;;;;17.57;48.41;101476.19;4911755;28;20206;-78
2024/01/13 02:39:59;;;;;;;6.47;4.53;;;;;;;17.57;48.79;101477.03;4938343;28;20806;-76
2024/01/13 02:42:24;;;;;;;6.63;4.27;;;;;;;17.59;48.61;101480.34;4950239;28;20527;-77
2024/01/13 02:44:50;;;;;;;7.13;4.57;;;;;;;17.64;48.87;101471.59;4916941;29;20207;-77
2024/01/13 02:47:15;;;;;;;5.77;4.13;;;;;;;17.65;47.80;101469.59;4915106;29;20676;-78
2024/01/13 02:49:41;;;;;;;7.63;4.80;;;;;;;17.59;48.52;101462.38;4903105;29;20239;-77
2024/01/13 02:52:06;;;;;;;8.10;4.67;;;;;;;17.56;48.78;101457.38;4899503;29;20215;-77
2024/01/13 02:54:32;;;;;;;6.57;4.77;;;;;;;17.55;48.70;101462.25;4915311;29;20637;-77
2024/01/13 02:56:59;;;;;;;5.93;4.40;;;;;;;17.61;48.32;101462.88;4883736;29;20218;-78
2024/01/13 02:59:24;;;;;;;5.80;4.40;;;;;;;17.59;48.46;101459.53;4878268;29;20207;-78
2024/01/13 03:01:49;;;;;;;7.00;4.47;;;;;;;17.54;48.99;101460.56;4896627;29;20448;-78
2024/01/13 03:04:15;;;;;;;6.87;4.50;;;;;;;17.52;48.57;101453.53;4884929;29;20196;-78
2024/01/13 03:06:40;;;;;;;7.63;5.07;;;;;;;17.52;48.63;101451.53;4914697;29;20251;-77
2024/01/13 03:09:06;;;;;;;4.60;3.57;;;;;;;17.56;48.48;101460.22;4903222;29;20223;-78
2024/01/13 03:11:31;;;;;;;6.77;4.00;;;;;;;17.57;48.22;101453.34;4920429;29;20222;-78
2024/01/13 03:13:58;;;;;;;6.20;4.43;;;;;;;17.60;48.59;101453.47;4915190;29;20234;-78
2024/01/13 03:16:23;;;;;;;5.50;4.13;;;;;;;17.59;48.13;101448.09;4897346;29;20267;-76
2024/01/13 03:18:49;;;;;;;6.27;4.40;;;;;;;17.52;48.92;101442.97;4914769;29;20448;-76
2024/01/13 03:21:14;;;;;;;8.30;5.20;;;;;;;17.52;48.48;101442.13;4929464;29;20217;-76
2024/01/13 03:23:40;;;;;;;6.70;4.57;;;;;;;17.52;48.37;101436.41;4882381;29;20212;-76
2024/01/13 03:26:05;;;;;;;5.03;3.93;;;;;;;17.52;49.32;101442.13;4905411;29;20211;-77
2024/01/13 03:28:31;;;;;;;6.53;4.37;;;;;;;17.48;49.19;101439.13;4891290;29;20731;-76
2024/01/13 03:30:58;;;;;;;6.20;4.10;;;;;;;17.52;48.40;101440.13;4923346;29;20732;-77
2024/01/13 03:33:23;;;;;;;7.60;4.30;;;;;;;17.50;48.95;101435.94;4938652;29;20215;-77
2024/01/13 03:35:49;;;;;;;6.10;4.20;;;;;;;17.53;48.13;101429.50;4925169;29;20975;-76
2024/01/13 03:38:14;;;;;;;5.27;3.97;;;;;;;17.48;49.08;101433.41;4932780;29;20211;-75
2024/01/13 03:40:40;;;;;;;6.63;4.37;;;;;;;17.54;48.65;101429.16;4932749;29;20238;-76
2024/01/13 03:43:05;;;;;;;6.77;4.47;;;;;;;17.52;48.41;101430.69;4917585;29;20199;-76
2024/01/13 03:45:30;;;;;;;6.20;4.63;;;;;;;17.52;48.76;101422.97;4907609;29;20207;-76
2024/01/13 03:47:56;;;;;;;6.87;5.17;;;;;;;17.53;48.55;101424.66;4898254;29;20207;-77
2024/01/13 03:50:22;;;;;;;6.20;4.00;;;;;;;17.50;49.02;101419.63;4890879;29;20235;-76
2024/01/13 03:52:47;;;;;;;6.07;4.10;;;;;;;17.48;48.64;101407.72;4890755;29;20215;-77
2024/01/13 03:55:13;;;;;;;6.33;4.23;;;;;;;17.54;47.93;101409.19;4908303;29;20704;-76
2024/01/13 03:57:39;;;;;;;6.67;4.50;;;;;;;17.55;48.47;101408.00;4897567;29;20287;-77
2024/01/13 04:00:06;;;;;;;5.93;4.10;;;;;;;17.52;48.58;101407.84;4923054;29;20530;-77
2024/01/13 04:02:32;;;;;;;5.87;4.47;;;;;;;17.55;48.43;101404.31;4904448;29;20691;-76
2024/01/13 04:04:57;;;;;;;5.53;3.80;;;;;;;17.56;48.34;101411.69;4915382;29;20454;-77
2024/01/13 04:07:23;;;;;;;7.33;4.70;;;;;;;17.49;48.64;101409.38;4928473;29;20199;-75
2024/01/13 04:09:48;;;;;;;5.93;4.50;;;;;;;17.51;48.24;101409.03;4897135;29;20224;-75
2024/01/13 04:12:13;;;;;;;5.70;4.50;;;;;;;17.46;48.85;101412.91;4936888;29;20211;-76
2024/01/13 04:14:39;;;;;;;5.67;4.10;;;;;;;17.55;49.18;101413.69;4910311;29;20208;-76
2024/01/13 04:17:05;;;;;;;6.13;4.00;;;;;;;17.53;48.37;101418.94;4912995;29;20559;-77
2024/01/13 04:19:30;;;;;;;5.80;4.13;;;;;;;17.47;49.01;101420.34;4931731;29;20209;-76
2024/01/13 04:21:56;;;;;;;5.30;4.00;;;;;;;17.51;48.91;101423.31;4908498;29;20220;-76
2024/01/13 04:24:21;;;;;;;6.17;4.20;;;;;;;17.54;48.38;101426.31;4930621;29;20727;-77
2024/01/13 04:26:46;;;;;;;6.70;4.20;;;;;;;17.54;48.72;101422.59;4911672;29;20649;-71
2024/01/13 04:29:12;;;;;;;7.10;4.63;;;;;;;17.53;48.16;101418.94;4921454;29;20215;-72
2024/01/13 04:31:37;;;;;;;4.70;3.83;;;;;;;17.51;48.72;101420.47;4924200;29;20211;-73
2024/01/13 04:34:03;;;;;;;5.47;4.00;;;;;;;17.54;48.61;101408.34;4898876;29;20203;-72
2024/01/13 04:36:28;;;;;;;8.40;4.17;;;;;;;17.50;48.55;101405.34;4921408;29;20219;-73
2024/01/13 04:38:54;;;;;;;6.23;4.10;;;;;;;17.46;48.72;101410.06;4894647;29;20208;-72
2024/01/13 04:41:20;;;;;;;5.50;3.60;;;;;;;17.49;48.93;101414.25;4910982;29;20215;-72
2024/01/13 04:43:45;;;;;;;7.63;4.63;;;;;;;17.52;48.16;101414.41;4903591;29;20455;-73
2024/01/13 04:46:11;;;;;;;6.57;4.40;;;;;;;17.54;48.49;101414.91;4912170;29;20195;-72
2024/01/13 04:48:36;;;;;;;6.60;4.47;;;;;;;17.50;48.17;101413.91;4913984;29;20256;-72
2024/01/13 04:51:02;;;;;;;6.23;4.30;;;;;;;17.50;48.65;101410.25;4910990;28;20239;-72
2024/01/13 04:53:28;;;;;;;5.60;4.13;;;;;;;17.53;48.33;101401.81;4933612;28;20663;-72
2024/01/13 04:55:53;;;;;;;7.57;4.70;;;;;;;17.44;48.81;101403.88;4931263;29;20203;-72
2024/01/13 04:58:19;;;;;;;5.00;3.77;;;;;;;17.46;48.92;101404.34;4917749;29;20235;-72
2024/01/13 05:00:44;;;;;;;5.50;3.80;;;;;;;17.49;48.49;101397.97;4949158;28;20198;-71
2024/01/13 05:03:10;;;;;;;5.70;3.90;;;;;;;17.52;48.37;101408.72;4951971;28;20217;-72
2024/01/13 05:05:35;;;;;;;6.60;4.40;;;;;;;17.53;48.69;101401.81;4949763;28;20199;-72
2024/01/13 05:08:01;;;;;;;7.33;4.33;;;;;;;17.55;48.58;101404.31;4933097;28;20627;-72
2024/01/13 05:10:27;;;;;;;5.70;4.17;;;;;;;17.47;48.90;101406.06;4920046;28;20257;-72
2024/01/13 05:12:52;;;;;;;4.97;4.20;;;;;;;17.54;48.29;101409.19;4918995;29;20206;-72
2024/01/13 05:15:18;;;;;;;7.33;4.37;;;;;;;17.54;48.80;101408.34;4935206;29;20464;-72
2024/01/13 05:17:43;;;;;;;6.20;4.10;;;;;;;17.51;48.36;101404.16;4915900;29;20215;-73
2024/01/13 05:20:09;;;;;;;5.27;3.70;;;;;;;17.49;48.95;101409.38;4936717;28;20215;-72
2024/01/13 05:22:35;;;;;;;6.90;4.00;;;;;;;17.51;48.58;101404.16;4920860;29;20211;-72
2024/01/13 05:25:00;;;;;;;6.57;4.40;;;;;;;17.54;48.56;101394.91;4935794;29;20534;-72
2024/01/13 05:27:26;;;;;;;6.47;4.53;;;;;;;17.49;49.03;101400.81;4950542;28;20242;-72
2024/01/13 05:29:52;;;;;;;7.00;5.10;;;;;;;17.46;48.76;101398.66;4936044;28;20847;-72
2024/01/13 05:32:17;;;;;;;6.13;3.73;;;;;;;17.50;48.61;101391.06;4933183;29;20218;-72
2024/01/13 05:34:43;;;;;;;6.90;4.37;;;;;;;17.50;48.70;101396.78;4936367;29;20203;-77
2024/01/13 05:37:08;;;;;;;6.90;4.70;;;;;;;17.52;48.29;101396.44;4926904;28;20214;-78
2024/01/13 05:39:34;;;;;;;7.03;4.33;;;;;;;17.50;48.23;101391.06;4918870;29;20863;-78
2024/01/13 05:41:59;;;;;;;6.67;4.40;;;;;;;17.47;49.42;101380.38;4945392;28;20616;-78
2024/01/13 05:44:25;;;;;;;6.57;4.30;;;;;;;17.47;48.64;101374.66;4939201;28;20725;-77
2024/01/13 05:46:51;;;;;;;7.27;4.57;;;;;;;17.51;48.41;101369.06;4947704;29;20199;-78
2024/01/13 05:49:17;;;;;;;5.37;4.00;;;;;;;17.53;48.42;101367.53;4935139;29;20230;-77
2024/01/13 05:51:42;;;;;;;6.93;4.87;;;;;;;17.46;48.69;101367.25;4935979;29;20454;-78
2024/01/13 05:54:08;;;;;;;5.87;4.03;;;;;;;17.50;48.57;101370.28;4950645;28;20207;-77
2024/01/13 05:56:33;;;;;;;6.83;4.60;;;;;;;17.48;48.56;101364.91;4916421;29;20263;-78
2024/01/13 05:58:59;;;;;;;7.07;4.67;;;;;;;17.47;49.00;101373.81;4916848;29;20200;-77
2024/01/13 06:01:24;;;;;;;7.33;4.50;;;;;;;17.51;48.82;101378.47;4923594;29;20219;-77
2024/01/13 06:03:53;;;;;;;6.40;4.30;;;;;;;17.49;48.54;101380.84;4938375;28;20229;-78
2024/01/13 06:06:19;;;;;;;6.23;4.57;;;;;;;17.53;49.03;101383.81;4952267;28;20213;-77
2024/01/13 06:08:44;;;;;;;6.63;4.23;;;;;;;17.48;49.04;101384.03;4931857;29;20448;-77
2024/01/13 06:11:10;;;;;;;5.77;4.23;;;;;;;17.53;48.56;101378.13;4932666;29;20672;-78
2024/01/13 06:13:35;;;;;;;7.77;5.07;;;;;;;17.48;49.03;101375.47;4940089;29;20215;-77
2024/01/13 06:16:01;;;;;;;6.20;4.13;;;;;;;17.54;47.86;101374.91;4933920;29;20207;-75
2024/01/13 06:18:26;;;;;;;6.50;4.03;;;;;;;17.53;48.25;101376.09;4917424;28;20230;-78
2024/01/13 06:20:52;;;;;;;6.03;4.03;;;;;;;17.55;48.87;101368.03;4930847;29;20203;-77
2024/01/13 06:23:17;;;;;;;6.43;4.40;;;;;;;17.54;48.09;101363.50;4915961;29;20679;-77
2024/01/13 06:25:43;;;;;;;5.17;4.00;;;;;;;17.48;48.60;101376.31;4913813;28;20230;-77
2024/01/13 06:28:08;;;;;;;6.50;4.10;;;;;;;17.57;48.39;101359.13;4926594;29;20210;-77
2024/01/13 06:30:33;;;;;;;5.80;4.17;;;;;;;17.53;48.36;101353.28;4915410;29;20536;-78
2024/01/13 06:32:59;;;;;;;5.77;4.03;;;;;;;17.53;48.15;101363.84;4899723;29;21011;-77
2024/01/13 06:35:24;;;;;;;5.33;4.30;;;;;;;17.46;49.49;101366.44;4916535;29;20215;-78
2024/01/13 06:37:50;;;;;;;5.30;4.00;;;;;;;17.51;48.88;101360.50;4916321;29;20216;-77
2024/01/13 06:40:16;;;;;;;5.70;4.47;;;;;;;17.49;49.06;101366.56;4922110;28;20199;-77
2024/01/13 06:42:41;;;;;;;6.30;4.50;;;;;;;17.53;48.21;101361.84;4949978;29;20830;-77
2024/01/13 06:45:07;;;;;;;5.07;3.80;;;;;;;17.48;48.99;101367.75;4933840;28;20211;-72
2024/01/13 06:47:32;;;;;;;6.17;4.70;;;;;;;17.49;48.93;101366.56;4968926;28;20297;-72
2024/01/13 06:49:58;;;;;;;5.17;4.10;;;;;;;17.51;48.74;101357.66;4919965;29;20710;-72
2024/01/13 06:52:23;;;;;;;6.80;4.50;;;;;;;17.52;49.27;101360.16;4940652;28;20206;-72
2024/01/13 06:54:49;;;;;;;6.30;4.70;;;;;;;17.49;49.13;101351.44;4919231;28;20213;-72
2024/01/13 06:57:15;;;;;;;7.13;4.63;;;;;;;17.53;48.50;101356.13;4933140;29;20301;-72
2024/01/13 06:59:43;;;;;;;6.10;4.60;;;;;;;17.51;48.99;101352.75;4935564;29;20195;-72
2024/01/13 07:02:09;;;;;;;6.07;4.53;;;;;;;17.53;48.94;101341.84;4935052;29;20926;-72
2024/01/13 07:04:36;;;;;;;7.27;4.67;;;;;;;17.52;48.54;101337.34;4951064;28;20923;-72
2024/01/13 07:07:02;;;;;;;6.47;4.33;;;;;;;17.50;48.77;101339.69;4933418;28;20506;-72
2024/01/13 07:09:27;;;;;;;8.50;5.07;;;;;;;17.49;48.86;101342.88;4950681;29;21034;-71
2024/01/13 07:11:53;;;;;;;6.80;4.20;;;;;;;17.48;48.73;101349.78;4949134;28;20207;-72
2024/01/13 07:14:18;;;;;;;6.07;4.70;;;;;;;17.53;48.20;101341.84;4932506;29;20222;-72
2024/01/13 07:16:43;;;;;;;7.13;5.60;;;;;;;17.55;48.55;101345.19;4943535;29;20690;-73
2024/01/13 07:19:09;;;;;;;6.10;4.80;;;;;;;17.51;49.30;101358.47;4914766;29;20576;-72
2024/01/13 07:21:35;;;;;;;6.93;4.70;;;;;;;17.55;48.33;101341.50;4914490;29;20199;-72
2024/01/13 07:24:00;;;;;;;6.10;4.67;;;;;;;17.55;48.53;101347.22;4910693;29;20465;-72
2024/01/13 07:26:26;;;;;;;5.33;4.30;;;;;;;17.52;48.82;101350.75;4929280;29;20697;-73
2024/01/13 07:28:51;;;;;;;6.60;4.37;;;;;;;17.51;48.87;101346.25;4933171;28;20230;-72
2024/01/13 07:31:17;;;;;;;5.63;4.43;;;;;;;17.51;48.66;101347.06;4947516;28;20210;-72
2024/01/13 07:33:42;;;;;;;7.47;5.17;;;;;;;17.50;48.93;101351.09;4900693;29;20212;-72
2024/01/13 07:36:08;;;;;;;5.93;4.10;;;;;;;17.53;49.12;101344.69;4898150;29;20204;-72
2024/01/13 07:38:33;;;;;;;6.67;4.70;;;;;;;17.53;48.41;101350.41;4920611;28;20203;-73
2024/01/13 07:40:59;;;;;;;10.23;5.50;;;;;;;17.58;48.32;101340.78;4932425;29;20203;-72
2024/01/13 07:43:24;;;;;;;7.00;4.70;;;;;;;17.52;49.05;101348.75;4916542;29;20557;-73
2024/01/13 07:45:49;;;;;;;6.60;4.87;;;;;;;17.50;49.24;101336.81;4918179;28;20671;-72
2024/01/13 07:48:15;;;;;;;9.00;5.10;;;;;;;17.46;49.06;101335.84;4936113;28;20206;-72
2024/01/13 07:50:40;;;;;;;7.90;4.80;;;;;;;17.59;48.39;101337.59;4945457;28;20236;-72
2024/01/13 07:53:06;;;;;;;5.40;4.57;;;;;;;17.54;48.80;101340.66;4915108;29;20604;-72
2024/01/13 07:55:31;;;;;;;6.33;4.23;;;;;;;17.55;48.45;101330.91;4890518;29;20273;-76
2024/01/13 07:57:57;;;;;;;5.23;3.90;;;;;;;17.56;48.85;101331.75;4879446;29;20353;-76
2024/01/13 08:00:23;;;;;;;6.40;5.00;;;;;;;17.52;48.77;101331.63;4888353;29;20248;-76
2024/01/13 08:02:49;;;;;;;6.50;4.90;;;;;;;17.60;48.31;101330.69;4912939;29;20213;-77
2024/01/13 08:05:14;;;;;;;6.33;4.60;;;;;;;17.52;49.07;101340.19;4913329;29;21076;-77
2024/01/13 08:07:39;;;;;;;5.60;4.10;;;;;;;17.55;48.64;101330.91;4931597;29;20203;-77
2024/01/13 08:10:06;;;;;;;6.00;4.33;;;;;;;17.50;49.30;101321.72;4887918;29;20220;-76
2024/01/13 08:12:31;;;;;;;6.63;4.57;;;;;;;17.53;49.51;101321.00;4879919;29;20204;-76
2024/01/13 08:14:56;;;;;;;6.30;4.40;;;;;;;17.54;48.68;101329.25;4904139;29;21199;-76
2024/01/13 08:17:22;;;;;;;6.63;4.73;;;;;;;17.53;48.92;101333.28;4913027;29;20203;-76
2024/01/13 08:19:47;;;;;;;7.63;4.87;;;;;;;17.58;48.86;101323.66;4893251;29;20247;-76
2024/01/13 08:22:13;;;;;;;5.60;4.17;;;;;;;17.56;48.65;101324.00;4900678;29;20279;-77
2024/01/13 08:24:38;;;;;;;6.27;4.80;;;;;;;17.57;49.04;101325.69;4894700;29;20223;-76
2024/01/13 08:27:04;;;;;;;7.63;4.50;;;;;;;17.58;49.24;101332.22;4878943;29;20269;-76
2024/01/13 08:29:29;;;;;;;7.50;4.50;;;;;;;17.49;48.99;101329.44;4896358;29;20220;-77
2024/01/13 08:31:55;;;;;;;6.00;4.47;;;;;;;17.54;49.17;101334.94;4923477;29;20230;-76
2024/01/13 08:34:20;;;;;;;6.57;4.37;;;;;;;17.54;49.46;101332.09;4884906;29;20250;-76
2024/01/13 08:36:46;;;;;;;5.37;4.20;;;;;;;17.56;48.48;101338.28;4879524;29;20227;-77
2024/01/13 08:39:11;;;;;;;6.60;4.50;;;;;;;17.56;48.81;101332.56;4895634;29;20220;-77
2024/01/13 08:41:37;;;;;;;7.40;4.20;;;;;;;17.57;49.07;101337.13;4916480;29;20203;-74
2024/01/13 08:44:05;;;;;;;6.80;4.57;;;;;;;17.57;48.87;101345.69;4912842;29;20577;-76
2024/01/13 08:46:31;;;;;;;5.70;3.90;;;;;;;17.57;48.83;101351.41;4916387;29;20283;-76
2024/01/13 08:48:56;;;;;;;5.20;3.83;;;;;;;17.58;48.74;101350.19;4925615;29;20467;-76
2024/01/13 08:51:22;;;;;;;6.87;4.53;;;;;;;17.60;49.21;101353.53;4933482;29;20263;-77
2024/01/13 08:53:47;;;;;;;7.33;4.67;;;;;;;17.55;49.13;101355.78;4918008;29;20212;-77
2024/01/13 08:56:14;;;;;;;7.70;4.17;;;;;;;17.58;48.88;101355.91;4902083;29;20573;-77
2024/01/13 08:58:39;;;;;;;6.30;4.73;;;;;;;17.64;48.75;101351.66;4918054;29;20203;-76
2024/01/13 09:01:05;;;;;;;6.90;4.30;;;;;;;17.59;48.51;101351.03;4914822;29;21259;-76
2024/01/13 09:03:30;;;;;;;6.33;4.43;;;;;;;17.57;48.91;101356.25;4917714;29;20309;-76
2024/01/13 09:05:56;;;;;;;7.60;4.43;;;;;;;17.58;48.94;101355.06;4904611;29;20271;-72
2024/01/13 09:08:21;;;;;;;5.50;4.20;;;;;;;17.54;48.82;101348.38;4917627;29;20208;-73
2024/01/13 09:10:47;;;;;;;10.60;4.43;;;;;;;17.60;49.07;101349.84;4917519;29;20208;-72
2024/01/13 09:13:12;;;;;;;6.37;4.43;;;;;;;17.57;48.73;101357.09;4919143;29;20613;-72
2024/01/13 09:15:38;;;;;;;7.50;5.17;;;;;;;17.56;49.26;101363.97;4932397;29;20204;-72
2024/01/13 09:18:03;;;;;;;6.13;4.23;;;;;;;17.56;48.78;101360.31;4915943;29;20214;-71
2024/01/13 09:20:29;;;;;;;6.80;4.67;;;;;;;17.62;48.62;101359.75;4899104;29;20240;-72
2024/01/13 09:22:55;;;;;;;5.80;4.10;;;;;;;17.58;48.90;101357.91;4914413;29;20239;-73
2024/01/13 09:25:20;;;;;;;7.03;5.27;;;;;;;17.62;48.67;101354.03;4927196;29;20212;-71
2024/01/13 09:27:46;;;;;;;8.30;4.10;;;;;;;17.59;49.02;101348.16;4926750;28;20216;-71
2024/01/13 09:30:11;;;;;;;6.50;4.53;;;;;;;17.59;49.11;101354.72;4901485;29;20230;-72
2024/01/13 09:32:37;;;;;;;6.90;4.57;;;;;;;17.61;48.78;101355.19;4915410;29;20259;-72
2024/01/13 09:35:04;;;;;;;8.10;5.30;;;;;;;17.57;48.84;101356.25;4936109;29;20231;-71
2024/01/13 09:37:29;;;;;;;6.17;4.70;;;;;;;17.59;49.14;101363.28;4930858;29;20211;-71
2024/01/13 09:39:55;;;;;;;5.90;4.10;;;;;;;17.62;48.57;101354.03;4917609;29;20452;-74
2024/01/13 09:42:29;;;;;;;6.07;4.43;;;;;;;17.65;48.85;101349.66;4901937;29;20204;-71
2024/01/13 09:44:54;;;;;;;6.60;3.97;;;;;;;17.57;48.98;101351.41;4914766;29;20293;-71
2024/01/13 09:47:20;;;;;;;6.30;4.30;;;;;;;17.63;48.71;101349.16;4916294;29;20491;-72
2024/01/13 09:49:45;;;;;;;6.17;4.37;;;;;;;17.63;48.79;101352.00;4938185;28;20277;-71
2024/01/13 09:52:11;;;;;;;4.83;3.60;;;;;;;17.59;49.02;101349.00;4932936;29;20218;-71
2024/01/13 09:54:36;;;;;;;7.10;4.57;;;;;;;17.58;48.69;101353.06;4935513;29;20234;-71
2024/01/13 09:57:02;;;;;;;7.23;4.73;;;;;;;17.63;48.39;101347.13;4919505;29;20203;-72
2024/01/13 09:59:28;;;;;;;4.83;3.70;;;;;;;17.59;49.45;101349.00;4919136;29;20203;-71
2024/01/13 10:01:53;;;;;;;7.10;5.10;;;;;;;17.65;48.87;101352.50;4934339;29;20207;-71
2024/01/13 10:04:19;;;;;;;5.83;4.23;;;;;;;17.56;48.72;101344.00;4952142;28;20541;-73
2024/01/13 10:06:47;;;;;;;6.67;4.33;;;;;;;17.56;48.39;101343.16;4935040;29;20206;-73
2024/01/13 10:09:12;;;;;;;4.63;3.60;;;;;;;17.64;48.45;101345.09;4916623;29;20228;-71
2024/01/13 10:11:38;;;;;;;6.27;4.50;;;;;;;17.63;48.92;101344.28;4951017;29;20513;-71
2024/01/13 10:14:05;;;;;;;5.60;3.73;;;;;;;17.61;48.96;101329.50;4948884;28;20612;-71
2024/01/13 10:16:32;;;;;;;7.37;4.40;;;;;;;17.62;48.66;101318.91;4908522;28;20202;-76
2024/01/13 10:19:05;;;;;;;7.00;4.53;;;;;;;17.68;48.37;101311.81;4923284;29;20470;-76
2024/01/13 10:21:31;;;;;;;5.60;3.97;;;;;;;17.63;49.18;101314.88;4932637;29;20518;-77
2024/01/13 10:23:57;;;;;;;7.60;3.93;;;;;;;17.61;48.86;101312.38;4901300;29;20451;-76
2024/01/13 10:26:23;;;;;;;5.63;3.80;;;;;;;17.65;48.30;101319.06;4931547;29;20212;-77
2024/01/13 10:28:50;;;;;;;7.47;4.10;;;;;;;17.60;49.15;101321.31;4936660;29;20202;-77
2024/01/13 10:31:17;;;;;;;5.90;4.13;;;;;;;17.62;48.67;101331.19;4933767;29;20559;-77
2024/01/13 10:33:45;;;;;;;7.20;4.90;;;;;;;17.61;49.03;101337.25;4918556;29;20613;-77
2024/01/13 10:36:10;;;;;;;6.27;4.13;;;;;;;17.63;48.47;101350.00;4934485;29;20467;-78
2024/01/13 10:38:39;;;;;;;4.80;3.50;;;;;;;17.64;49.19;101345.09;4935200;29;20919;-78
2024/01/13 10:41:06;;;;;;;6.00;3.90;;;;;;;17.63;49.13;101332.84;4935629;29;20215;-77
2024/01/13 10:43:32;;;;;;;6.47;3.90;;;;;;;17.62;49.40;101319.78;4942781;28;20481;-78
2024/01/13 10:45:58;;;;;;;6.00;4.10;;;;;;;17.64;48.99;101323.09;4971127;28;20452;-76
2024/01/13 10:48:34;;;;;;;6.80;4.07;;;;;;;17.65;49.88;101304.78;4954249;28;20254;-78
2024/01/13 10:51:00;;;;;;;5.63;4.43;;;;;;;17.66;48.59;101295.00;4931163;29;20577;-77
2024/01/13 10:53:26;;;;;;;6.13;4.10;;;;;;;17.60;48.91;101293.56;4897259;29;20459;-77
2024/01/13 10:55:52;;;;;;;10.30;4.10;;;;;;;17.63;48.99;101301.44;4916936;29;20259;-78
2024/01/13 10:58:18;;;;;;;5.90;4.43;;;;;;;17.59;48.91;101294.75;4923813;29;20464;-77
2024/01/13 11:00:43;;;;;;;7.13;3.87;;;;;;;17.74;48.29;101278.97;4901911;29;20204;-77
2024/01/13 11:03:08;;;;;;;7.00;4.40;;;;;;;17.72;48.18;101270.78;4895733;29;20520;-77
2024/01/13 11:05:34;;;;;;;6.40;4.70;;;;;;;17.63;47.99;101258.63;4914041;29;20203;-77
2024/01/13 11:08:03;;;;;;;11.47;7.03;;;;;;;17.48;47.74;101256.41;4914301;29;20283;-77
2024/01/13 11:10:32;;;;;;;9.10;6.30;;;;;;;17.50;47.75;101261.78;4927535;29;20258;-77
2024/01/13 11:13:02;;;;;;;9.73;6.23;;;;;;;17.57;47.66;101250.63;4898578;29;20958;-76
2024/01/13 11:15:40;;;;;;;8.67;5.80;;;;;;;17.60;47.10;101241.34;4908913;29;20455;-77
2024/01/13 11:18:05;;;;;;;8.83;5.50;;;;;;;17.61;47.71;101240.97;4898626;29;21029;-76